Weather at Minneapolis–Saint Paul International Airport / Wold–Chamberlain Field

Public forecast

Using degrees Fahrenheit for public forecast. Weather courtesy of forecast.io.

Current aviation weather report (METAR) for Minneapolis–Saint Paul International Airport / Wold–Chamberlain Field

2022/11/30 09:53 (retrieved 21 minutes ago)

KMSP 300953Z 28017G26KT 9SM BKN029 OVC036 M06/M10 A2982 RMK AO2 PK WND 26029/0920 SLP110 P0003 T10561100

Aviation forecast (TAF) for Minneapolis–Saint Paul International Airport / Wold–Chamberlain Field

2022/11/30 09:52 Ammendment (retrieved 22 minutes ago)

TAF AMD KMSP 300850Z 3009/0112 29016G28KT P6SM OVC025 TEMPO 3009/3012 5SM -SN FM301200 28020G28KT P6SM OVC025 FM301800 28020G33KT P6SM BKN035 FM302300 28011G17KT P6SM SCT040 FM010300 27006KT P6SM FEW050